CheckWX is a tool to help pilots better visualize weather data.  It is not intended as a substitute for an official pre-flight weather briefing.

12:10:33 UTC

PAGS METAR
Gustavus Airport
Gustavus, Alaska, USA
Current

15 mins ago

PAGS 211156Z AUTO 14013KT 10SM -RA SCT012 SCT019 OVC032 03/02 A2932 RMK AO2 UPB09E15B36E47RAB15E36B56 SLP928 P0000 60006 70033 T00330017 10033 20022 51001
Observed
Feb-21 @ 11:56 UTC
Wind
  • 140° at 13 KTS
Visibility
10 SM
Flight Rules
VFR
Conditions
Light Rain
Cloud Levels
  • Scattered at 1,200' AGL
  • Scattered at 1,900' AGL
  • Overcast at 3,200' AGL
Temperature
C / 37°F
Dewpoint
C / 36°F
Humidity
93%
Altimeter
29.32" Hg
Pressure
992.92 hPa
Current Rain
0.01"
24 Hour Rain
0.33"
Previous

38 mins ago

PAGS 211133Z AUTO 13013G18KT 10SM -RA SCT012 SCT019 OVC032 03/02 A2932 RMK AO2 UPB09E15RAB15 P0000
Observed
Feb-21 @ 11:33 UTC
Wind
  • 130° at 13 KTS
  • Gusting to 18 KTS
Visibility
10 SM
Flight Rules
VFR
Conditions
Light Rain
Cloud Levels
  • Scattered at 1,200' AGL
  • Scattered at 1,900' AGL
  • Overcast at 3,200' AGL
Temperature
C / 37°F
Dewpoint
C / 36°F
Humidity
93%
Altimeter
29.32" Hg
Pressure
992.92 hPa
Current Rain
0.01"
Previous

1 hour ago

PAGS 211056Z AUTO 14015G20KT 10SM OVC034 03/01 A2932 RMK AO2 RAE31UPB31E33 SLP928 P0001 T00280011
Observed
Feb-21 @ 10:56 UTC
Wind
  • 140° at 15 KTS
  • Gusting to 20 KTS
Visibility
10 SM
Flight Rules
VFR
Cloud Levels
  • Overcast at 3,400' AGL
Temperature
C / 37°F
Dewpoint
C / 34°F
Humidity
87%
Altimeter
29.32" Hg
Pressure
992.92 hPa
Current Rain
0.01"